Time;durP1;ratioP1;P1;durP2;ratioP2;P2;SDS_P1;SDS_P2;PMS_P1;PMS_P2;Temp;Humidity;BMP_temperature;BMP_pressure;BME280_temperature;BME280_humidity;BME280_pressure;Samples;Min_cycle;Max_cycle;Signal;HPM_P1;HPM_P2
2021/05/04 00:01:15;;;;;;;55.85;21.60;;;;;;;3.49;58.66;98629.84;5051396;28;20039;-81
2021/05/04 00:03:40;;;;;;;55.25;22.75;;;;;;;3.47;59.09;98625.75;5051538;28;20032;-81
2021/05/04 00:06:05;;;;;;;62.13;25.92;;;;;;;3.39;59.19;98610.72;5052210;28;20086;-81
2021/05/04 00:08:31;;;;;;;63.63;24.52;;;;;;;3.38;58.72;98617.19;5051935;28;20039;-81
2021/05/04 00:10:57;;;;;;;62.47;23.83;;;;;;;3.36;59.46;98616.63;5052232;28;20036;-82
2021/05/04 00:13:23;;;;;;;49.65;19.70;;;;;;;3.37;59.42;98621.78;5048673;28;20029;-81
2021/05/04 00:15:48;;;;;;;56.20;21.10;;;;;;;3.34;59.90;98619.56;5049197;28;20469;-82
2021/05/04 00:18:14;;;;;;;59.67;22.70;;;;;;;3.30;59.83;98623.81;5051053;28;20045;-82
2021/05/04 00:20:39;;;;;;;58.65;21.42;;;;;;;3.28;60.45;98624.09;5049715;28;20132;-82
2021/05/04 00:23:05;;;;;;;58.33;22.83;;;;;;;3.28;59.85;98620.53;5044940;28;20031;-81
2021/05/04 00:25:30;;;;;;;53.83;21.27;;;;;;;3.24;59.87;98622.94;5051297;28;20100;-81
2021/05/04 00:27:56;;;;;;;46.63;18.92;;;;;;;3.24;60.23;98622.94;5051711;28;20044;-81
2021/05/04 00:30:21;;;;;;;50.72;21.42;;;;;;;3.14;60.88;98617.31;5047662;28;20041;-81
2021/05/04 00:32:47;;;;;;;50.28;20.92;;;;;;;3.16;59.87;98622.50;5049573;28;20033;-81
2021/05/04 00:35:12;;;;;;;50.33;20.75;;;;;;;3.14;60.75;98620.03;5048781;28;20465;-81
2021/05/04 00:37:37;;;;;;;47.33;20.25;;;;;;;3.17;60.14;98616.84;5063696;28;20474;-81
2021/05/04 00:40:04;;;;;;;44.72;19.75;;;;;;;3.15;60.10;98616.25;5051531;28;20446;-81
2021/05/04 00:42:30;;;;;;;48.00;18.40;;;;;;;3.07;60.06;98603.09;5047319;28;20022;-82
2021/05/04 00:44:55;;;;;;;49.83;20.00;;;;;;;3.08;60.58;98599.31;5051946;28;20052;-81
2021/05/04 00:47:21;;;;;;;46.70;18.88;;;;;;;3.06;60.59;98604.16;5046475;28;20291;-82
2021/05/04 00:49:46;;;;;;;44.75;20.48;;;;;;;3.00;60.66;98600.53;5047842;28;20072;-81
2021/05/04 00:52:12;;;;;;;46.50;19.98;;;;;;;3.00;61.07;98602.44;5047857;28;20036;-81
2021/05/04 00:54:39;;;;;;;45.95;21.00;;;;;;;2.95;60.70;98598.56;5048194;28;20173;-81
2021/05/04 00:57:07;;;;;;;43.47;18.73;;;;;;;2.94;61.00;98593.38;5046103;28;20025;-81
2021/05/04 00:59:32;;;;;;;45.40;19.75;;;;;;;2.91;61.38;98591.16;5077752;28;20482;-82
2021/05/04 01:01:58;;;;;;;43.95;18.50;;;;;;;2.89;61.36;98588.69;5047253;28;20051;-81
2021/05/04 01:04:24;;;;;;;42.60;18.63;;;;;;;2.87;61.91;98588.13;5047117;28;20053;-82
2021/05/04 01:06:49;;;;;;;44.63;18.30;;;;;;;2.89;61.72;98585.16;5046025;28;20029;-81
2021/05/04 01:09:16;;;;;;;36.67;16.35;;;;;;;2.85;61.85;98579.41;5045773;28;20061;-82
2021/05/04 01:11:43;;;;;;;38.92;17.35;;;;;;;2.85;61.55;98578.59;5051374;28;20028;-84
2021/05/04 01:14:09;;;;;;;42.83;17.10;;;;;;;2.83;61.45;98578.84;5048013;28;20546;-79
2021/05/04 01:16:34;;;;;;;36.65;16.63;;;;;;;2.85;62.06;98579.41;5046510;28;20041;-78
2021/05/04 01:18:59;;;;;;;41.63;16.70;;;;;;;2.86;61.86;98577.50;5048923;28;20736;-79
2021/05/04 01:21:25;;;;;;;38.13;16.85;;;;;;;2.86;61.17;98572.94;5049456;28;20032;-79
2021/05/04 01:23:50;;;;;;;38.28;17.92;;;;;;;2.87;61.89;98571.88;5050256;28;20037;-79
2021/05/04 01:26:15;;;;;;;33.47;16.20;;;;;;;2.89;61.77;98571.59;5049475;28;20413;-79
2021/05/04 01:28:41;;;;;;;32.25;15.02;;;;;;;2.85;61.99;98565.88;5050607;28;20296;-79
2021/05/04 01:31:06;;;;;;;35.00;15.23;;;;;;;2.87;61.21;98568.31;5049121;28;20017;-79
2021/05/04 01:33:31;;;;;;;35.03;16.13;;;;;;;2.88;62.05;98564.53;5050038;28;20037;-79
2021/05/04 01:35:57;;;;;;;33.35;15.23;;;;;;;2.85;61.97;98557.75;5050252;28;20021;-80
2021/05/04 01:38:22;;;;;;;30.95;14.48;;;;;;;2.85;61.53;98555.03;5046655;28;20104;-79
2021/05/04 01:40:48;;;;;;;29.05;13.20;;;;;;;2.86;61.55;98556.69;5049910;28;20449;-80
2021/05/04 01:43:13;;;;;;;29.63;13.25;;;;;;;2.87;61.76;98557.47;5048936;28;20057;-79
2021/05/04 01:45:39;;;;;;;30.55;13.65;;;;;;;2.85;61.06;98557.75;5049953;28;20481;-80
2021/05/04 01:48:05;;;;;;;29.85;13.70;;;;;;;2.83;61.72;98551.75;5050936;28;20409;-80
2021/05/04 01:50:30;;;;;;;22.80;10.93;;;;;;;2.85;61.35;98557.75;5049992;28;20032;-80
2021/05/04 01:52:55;;;;;;;24.83;11.27;;;;;;;2.86;61.89;98548.56;5052510;28;20029;-80
2021/05/04 01:55:21;;;;;;;23.55;10.65;;;;;;;2.86;61.12;98551.25;5049073;28;20033;-79
2021/05/04 01:57:46;;;;;;;20.88;8.98;;;;;;;2.88;61.82;98559.13;5048572;28;20025;-80
2021/05/04 02:00:13;;;;;;;20.40;10.10;;;;;;;2.86;61.31;98553.97;5049094;28;20052;-80
2021/05/04 02:02:39;;;;;;;23.65;10.00;;;;;;;2.86;61.32;98553.13;5047093;28;20452;-79
2021/05/04 02:05:05;;;;;;;20.40;9.05;;;;;;;2.88;61.25;98548.28;5049054;28;20029;-79
2021/05/04 02:07:31;;;;;;;22.40;9.85;;;;;;;2.88;61.26;98553.72;5050003;28;20513;-79
2021/05/04 02:09:56;;;;;;;24.40;10.13;;;;;;;2.86;62.04;98551.25;5048894;28;20049;-80
2021/05/04 02:12:22;;;;;;;25.20;10.30;;;;;;;2.85;61.47;98538.78;5049240;28;20031;-79
2021/05/04 02:14:48;;;;;;;19.98;8.00;;;;;;;2.86;61.49;98543.13;5049518;28;20063;-80
2021/05/04 02:17:13;;;;;;;22.98;10.07;;;;;;;2.87;61.84;98538.53;5048748;28;20037;-80
2021/05/04 02:19:39;;;;;;;21.00;9.52;;;;;;;2.85;61.36;98527.94;5050252;28;20048;-80
2021/05/04 02:22:04;;;;;;;22.27;9.45;;;;;;;2.89;60.82;98537.22;5051496;28;20023;-80
2021/05/04 02:24:30;;;;;;;17.98;8.35;;;;;;;2.89;60.98;98528.25;5051745;28;20025;-79
2021/05/04 02:26:56;;;;;;;22.88;9.98;;;;;;;2.90;61.36;98528.03;5049824;28;20063;-79
2021/05/04 02:29:21;;;;;;;18.30;9.38;;;;;;;2.90;61.11;98524.50;5048980;28;20026;-79
2021/05/04 02:31:46;;;;;;;16.15;7.75;;;;;;;2.82;61.30;98507.59;5049645;28;20059;-79
2021/05/04 02:34:13;;;;;;;32.53;12.40;;;;;;;2.89;61.57;98507.44;5047616;28;20076;-78
2021/05/04 02:36:39;;;;;;;48.88;17.23;;;;;;;2.95;61.37;98503.75;5046763;28;20032;-79
2021/05/04 02:39:06;;;;;;;40.42;15.23;;;;;;;3.03;61.00;98490.88;5052348;28;20263;-79
2021/05/04 02:41:32;;;;;;;23.13;9.73;;;;;;;3.08;60.70;98497.19;5053409;28;20025;-79
2021/05/04 02:43:57;;;;;;;23.38;11.32;;;;;;;3.10;61.39;98481.50;5050539;28;20211;-79
2021/05/04 02:46:23;;;;;;;24.15;9.05;;;;;;;3.15;60.70;98480.75;5052498;28;20025;-79
2021/05/04 02:48:48;;;;;;;19.83;9.18;;;;;;;3.22;61.40;98486.81;5053266;28;20366;-79
2021/05/04 02:51:14;;;;;;;19.38;9.20;;;;;;;3.26;61.27;98479.03;5053612;28;20025;-79
2021/05/04 02:53:39;;;;;;;23.27;10.40;;;;;;;3.22;60.55;98470.56;5053717;28;20017;-79
2021/05/04 02:56:07;;;;;;;21.42;10.27;;;;;;;3.19;60.61;98470.25;5052433;28;20028;-79
2021/05/04 02:58:32;;;;;;;22.17;9.85;;;;;;;3.10;60.21;98467.09;5052994;28;20057;-79
2021/05/04 03:00:58;;;;;;;22.85;10.27;;;;;;;3.07;60.58;98467.59;5050318;28;20131;-79
2021/05/04 03:03:24;;;;;;;26.13;11.30;;;;;;;3.03;60.19;98472.69;5052832;28;20026;-79
2021/05/04 03:05:50;;;;;;;31.38;12.88;;;;;;;3.01;60.55;98466.72;5052899;28;20048;-79
2021/05/04 03:08:16;;;;;;;40.13;14.23;;;;;;;3.00;60.83;98459.66;5050586;28;20060;-80
2021/05/04 03:10:41;;;;;;;33.47;13.25;;;;;;;3.06;60.39;98465.97;5050437;28;20102;-79
2021/05/04 03:13:06;;;;;;;32.90;12.88;;;;;;;3.11;60.46;98452.50;5045545;28;20026;-80
2021/05/04 03:15:32;;;;;;;31.15;13.52;;;;;;;3.15;60.24;98452.84;5050049;28;20029;-79
2021/05/04 03:17:57;;;;;;;35.22;13.57;;;;;;;3.19;60.34;98457.50;5049620;28;20449;-79
2021/05/04 03:20:23;;;;;;;32.90;13.65;;;;;;;3.17;60.30;98464.25;5047916;28;20029;-79
2021/05/04 03:22:48;;;;;;;29.13;13.73;;;;;;;3.10;60.30;98453.56;5044429;28;20035;-79
2021/05/04 03:25:13;;;;;;;31.40;13.10;;;;;;;3.11;60.23;98455.19;5049052;28;20033;-79
2021/05/04 03:27:39;;;;;;;34.50;13.75;;;;;;;3.16;60.08;98443.63;5049054;28;20052;-79
2021/05/04 03:30:07;;;;;;;36.38;13.68;;;;;;;3.19;60.68;98449.38;5042719;28;20057;-78
2021/05/04 03:32:32;;;;;;;31.75;13.60;;;;;;;3.22;59.98;98446.16;5046427;28;20037;-79
2021/05/04 03:34:58;;;;;;;36.90;15.05;;;;;;;3.22;60.67;98446.16;5038135;28;20025;-79
2021/05/04 03:37:23;;;;;;;36.38;14.73;;;;;;;3.24;60.04;98448.66;5049276;28;20037;-79
2021/05/04 03:39:48;;;;;;;34.25;14.60;;;;;;;3.25;60.09;98440.25;5046091;28;20036;-79
2021/05/04 03:42:14;;;;;;;31.92;14.82;;;;;;;3.20;60.20;98445.59;5054854;28;20037;-78
2021/05/04 03:44:39;;;;;;;36.03;15.43;;;;;;;3.15;60.23;98445.50;5043380;28;20021;-79
2021/05/04 03:47:04;;;;;;;33.47;15.23;;;;;;;3.16;60.35;98443.63;5050747;28;20028;-79
2021/05/04 03:49:30;;;;;;;32.67;14.75;;;;;;;3.13;60.39;98442.22;5046092;28;20444;-78
2021/05/04 03:51:55;;;;;;;29.55;12.40;;;;;;;3.12;60.68;98437.88;5056088;28;20473;-80
2021/05/04 03:54:21;;;;;;;30.63;13.68;;;;;;;3.07;60.49;98444.03;5051075;28;20028;-79
2021/05/04 03:56:46;;;;;;;29.15;13.73;;;;;;;3.10;60.47;98448.13;5049105;28;20064;-79
2021/05/04 03:59:11;;;;;;;32.70;14.73;;;;;;;3.14;60.28;98435.75;5043867;28;20412;-79
2021/05/04 04:01:37;;;;;;;30.42;14.10;;;;;;;3.20;59.95;98429.31;5054430;28;20025;-79
2021/05/04 04:04:02;;;;;;;33.58;14.85;;;;;;;3.27;60.48;98429.97;5037925;28;20025;-79
2021/05/04 04:06:28;;;;;;;32.80;14.35;;;;;;;3.30;60.60;98420.50;5037506;28;20025;-79
2021/05/04 04:08:53;;;;;;;34.80;15.25;;;;;;;3.36;60.57;98430.38;5039035;28;20038;-79
2021/05/04 04:11:19;;;;;;;31.30;14.93;;;;;;;3.39;60.64;98426.34;5054464;28;20033;-82
2021/05/04 04:13:45;;;;;;;37.42;16.38;;;;;;;3.40;59.66;98417.97;5050616;28;20017;-81
2021/05/04 04:16:10;;;;;;;42.67;16.95;;;;;;;3.44;60.10;98418.28;5043258;28;20393;-81
2021/05/04 04:18:36;;;;;;;49.65;17.75;;;;;;;3.48;59.85;98422.13;5050207;28;20070;-80
2021/05/04 04:21:01;;;;;;;50.88;18.80;;;;;;;3.51;60.00;98412.69;5046592;28;20098;-80
2021/05/04 04:23:27;;;;;;;47.83;16.40;;;;;;;3.57;59.67;98417.91;5050956;28;20119;-79
2021/05/04 04:25:52;;;;;;;46.10;16.58;;;;;;;3.63;59.87;98415.25;5055587;28;20032;-78
2021/05/04 04:28:17;;;;;;;44.63;15.98;;;;;;;3.67;60.34;98416.41;5052872;28;20032;-80
2021/05/04 04:30:43;;;;;;;31.73;13.05;;;;;;;3.72;60.38;98408.34;5043833;28;20755;-80
2021/05/04 04:33:08;;;;;;;34.67;11.95;;;;;;;3.78;60.53;98411.91;5042743;28;20025;-82
2021/05/04 04:35:33;;;;;;;32.25;11.30;;;;;;;3.82;60.15;98411.19;5049666;28;20025;-80
2021/05/04 04:37:59;;;;;;;28.52;11.52;;;;;;;3.93;60.58;98416.69;5038449;28;20116;-81
2021/05/04 04:40:24;;;;;;;24.85;9.98;;;;;;;4.00;59.83;98407.31;5049235;28;20056;-79
2021/05/04 04:42:50;;;;;;;23.13;9.65;;;;;;;4.08;59.83;98408.75;5053385;28;20040;-80
2021/05/04 04:45:15;;;;;;;21.75;9.57;;;;;;;4.17;59.63;98403.66;5051763;28;20114;-79
2021/05/04 04:47:40;;;;;;;22.25;10.25;;;;;;;4.28;59.81;98408.13;5053863;28;20120;-80
2021/05/04 04:50:07;;;;;;;21.60;10.13;;;;;;;4.39;60.29;98402.81;5053851;28;20025;-80
2021/05/04 04:52:32;;;;;;;24.83;9.60;;;;;;;4.52;59.56;98402.38;5054687;28;20059;-79
2021/05/04 04:54:57;;;;;;;21.83;9.40;;;;;;;4.63;60.27;98389.72;5070074;28;20441;-79
2021/05/04 04:57:23;;;;;;;34.30;10.80;;;;;;;4.77;60.09;98385.47;5072805;28;20032;-80
2021/05/04 04:59:49;;;;;;;27.15;10.23;;;;;;;4.94;59.89;98389.94;5060137;28;20076;-79
2021/05/04 05:02:16;;;;;;;30.88;11.90;;;;;;;5.07;60.07;98394.13;5071957;28;20119;-79
2021/05/04 05:04:43;;;;;;;34.88;15.95;;;;;;;5.15;59.65;98392.78;5067586;28;20547;-79
2021/05/04 05:07:08;;;;;;;27.92;12.10;;;;;;;5.23;59.33;98389.59;5053665;28;20028;-79
2021/05/04 05:09:35;;;;;;;23.13;8.85;;;;;;;5.30;59.24;98389.38;5053587;28;20381;-79
2021/05/04 05:12:05;;;;;;;22.35;9.80;;;;;;;5.38;59.05;98383.41;5053280;28;20112;-79
2021/05/04 05:14:32;;;;;;;18.83;8.65;;;;;;;5.46;58.71;98385.63;5085650;28;20488;-79
2021/05/04 05:16:58;;;;;;;18.55;8.82;;;;;;;5.55;58.71;98385.13;5053079;28;20103;-79
2021/05/04 05:19:23;;;;;;;17.13;8.00;;;;;;;5.64;58.67;98383.56;5053312;28;20481;-79
2021/05/04 05:21:49;;;;;;;17.13;8.13;;;;;;;5.72;58.73;98379.50;5053120;28;20469;-80
2021/05/04 05:24:14;;;;;;;16.90;7.40;;;;;;;5.75;58.69;98363.44;5053269;28;20032;-80
2021/05/04 05:26:40;;;;;;;19.98;8.57;;;;;;;5.82;58.07;98368.66;5053320;28;20021;-79
2021/05/04 05:29:06;;;;;;;16.13;7.70;;;;;;;5.88;58.43;98361.31;5053138;28;20104;-79
2021/05/04 05:31:33;;;;;;;17.20;7.43;;;;;;;5.95;57.99;98361.88;5052914;28;20025;-79
2021/05/04 05:33:59;;;;;;;20.40;8.23;;;;;;;6.05;58.48;98361.94;5052976;28;20025;-79
2021/05/04 05:36:24;;;;;;;19.70;7.88;;;;;;;6.13;58.01;98360.59;5053270;28;20035;-80
2021/05/04 05:38:49;;;;;;;15.60;7.05;;;;;;;6.22;58.08;98355.41;5063925;28;20024;-80
2021/05/04 05:41:15;;;;;;;14.65;6.70;;;;;;;6.31;57.91;98347.56;5054947;28;20196;-80
2021/05/04 05:43:40;;;;;;;18.70;7.10;;;;;;;6.40;58.06;98340.47;5057360;28;20452;-79
2021/05/04 05:46:06;;;;;;;16.75;8.23;;;;;;;6.46;57.79;98336.66;5052532;28;20029;-79
2021/05/04 05:48:31;;;;;;;26.85;12.75;;;;;;;6.57;57.48;98328.47;5052771;28;20788;-79
2021/05/04 05:50:56;;;;;;;20.08;9.23;;;;;;;6.65;57.63;98325.22;5052645;28;20028;-79
2021/05/04 05:53:22;;;;;;;17.60;7.72;;;;;;;6.76;57.49;98324.09;5052830;28;20064;-80
2021/05/04 05:55:48;;;;;;;14.65;6.93;;;;;;;6.89;57.16;98325.47;5053774;28;20033;-80
2021/05/04 05:58:13;;;;;;;14.52;6.60;;;;;;;6.99;56.83;98319.97;5056476;28;20036;-80
2021/05/04 06:00:39;;;;;;;17.45;7.43;;;;;;;7.13;57.23;98317.47;5057627;28;20032;-79
2021/05/04 06:03:05;;;;;;;14.63;7.43;;;;;;;7.28;57.14;98319.38;5071284;28;20035;-80
2021/05/04 06:05:31;;;;;;;15.07;6.63;;;;;;;7.46;57.13;98306.19;5063835;28;20120;-80
2021/05/04 06:07:57;;;;;;;12.93;6.05;;;;;;;7.65;56.88;98300.91;5060063;28;20084;-82
2021/05/04 06:10:23;;;;;;;14.55;6.68;;;;;;;7.83;56.83;98295.91;5069630;28;20024;-86
2021/05/04 06:13:05;;;;;;;14.20;7.32;;;;;;;7.96;56.40;98278.88;5066906;28;20021;-84
2021/05/04 06:15:30;;;;;;;13.05;6.10;;;;;;;8.05;55.76;98270.91;5058503;28;20025;-84
2021/05/04 06:17:56;;;;;;;14.70;6.40;;;;;;;8.14;56.20;98266.50;5059577;28;20041;-83
2021/05/04 06:20:22;;;;;;;11.20;6.00;;;;;;;8.26;55.58;98268.84;5060734;28;20059;-82
2021/05/04 06:22:48;;;;;;;12.18;5.75;;;;;;;8.36;56.05;98262.47;5065615;28;20393;-85
2021/05/04 06:25:13;;;;;;;12.40;7.15;;;;;;;8.46;55.58;98256.94;5066475;28;20031;-84
2021/05/04 06:27:39;;;;;;;18.27;7.78;;;;;;;8.56;55.50;98255.25;5076303;28;20032;-83
2021/05/04 06:30:06;;;;;;;24.33;7.80;;;;;;;8.66;55.02;98257.06;5075526;28;20074;-83
2021/05/04 06:32:31;;;;;;;22.80;9.25;;;;;;;8.72;54.48;98251.22;5076402;28;20090;-83
2021/05/04 06:34:57;;;;;;;16.50;7.45;;;;;;;8.83;55.02;98242.94;5076528;28;20024;-83
2021/05/04 06:37:22;;;;;;;12.63;6.50;;;;;;;8.92;54.56;98233.00;5076341;28;20021;-83
2021/05/04 06:39:48;;;;;;;14.23;5.93;;;;;;;9.01;54.44;98227.69;5076310;28;20541;-83
2021/05/04 06:42:13;;;;;;;15.43;6.65;;;;;;;9.09;54.34;98229.78;5076254;28;20025;-83
2021/05/04 06:44:38;;;;;;;11.15;4.88;;;;;;;9.16;53.73;98224.78;5075805;28;20033;-83
2021/05/04 06:47:04;;;;;;;10.48;5.00;;;;;;;9.24;53.31;98221.38;5072698;28;20021;-83
2021/05/04 06:49:30;;;;;;;11.02;5.32;;;;;;;9.32;53.44;98216.34;5055408;28;20044;-83
2021/05/04 06:51:55;;;;;;;16.75;7.60;;;;;;;9.42;52.82;98213.47;5055666;28;20373;-83
2021/05/04 06:54:21;;;;;;;12.50;6.18;;;;;;;9.57;52.73;98209.72;5054338;28;20021;-83
2021/05/04 06:56:46;;;;;;;11.13;5.35;;;;;;;9.66;51.73;98198.91;5055767;28;20017;-82
2021/05/04 06:59:11;;;;;;;11.85;5.60;;;;;;;9.70;52.28;98194.47;5055609;28;20029;-83
2021/05/04 07:01:39;;;;;;;10.45;4.80;;;;;;;9.81;51.86;98185.00;5054409;28;20078;-83
2021/05/04 07:04:05;;;;;;;9.98;4.93;;;;;;;9.89;51.66;98180.75;5055354;28;20044;-84
2021/05/04 07:06:31;;;;;;;9.15;4.97;;;;;;;9.99;51.85;98182.50;5055623;28;20074;-83
2021/05/04 07:08:56;;;;;;;9.95;5.00;;;;;;;10.05;51.00;98178.56;5055992;28;20030;-83
2021/05/04 07:11:21;;;;;;;11.88;5.88;;;;;;;10.12;50.96;98172.72;5055588;28;20032;-84
2021/05/04 07:13:47;;;;;;;12.70;6.28;;;;;;;10.20;49.93;98163.00;5055651;28;20029;-85
2021/05/04 07:16:12;;;;;;;10.65;4.95;;;;;;;10.26;50.58;98162.59;5054012;28;20455;-85
2021/05/04 07:18:40;;;;;;;9.75;4.80;;;;;;;10.34;48.69;98158.34;5054075;28;20174;-85
2021/05/04 07:21:08;;;;;;;10.30;5.03;;;;;;;10.42;49.69;98149.44;5055613;28;20085;-78
2021/05/04 07:23:35;;;;;;;8.77;4.93;;;;;;;10.53;48.58;98157.47;5055962;28;20060;-80
2021/05/04 07:26:01;;;;;;;9.88;5.47;;;;;;;10.57;48.47;98145.63;5054861;28;20032;-80
2021/05/04 07:28:27;;;;;;;8.05;4.82;;;;;;;10.70;48.50;98137.69;5055072;28;20588;-80
2021/05/04 07:30:53;;;;;;;9.43;4.97;;;;;;;10.77;48.72;98140.03;5054213;28;20029;-82
2021/05/04 07:33:19;;;;;;;8.02;4.82;;;;;;;10.89;49.19;98134.03;5052363;28;20074;-82
2021/05/04 07:35:45;;;;;;;8.52;4.30;;;;;;;10.94;48.51;98126.50;5054153;28;20029;-83
2021/05/04 07:38:10;;;;;;;8.45;4.75;;;;;;;11.01;48.83;98126.88;5054543;28;20033;-81
2021/05/04 07:40:37;;;;;;;7.40;4.28;;;;;;;11.08;47.95;98126.47;5054121;28;20060;-82
2021/05/04 07:43:02;;;;;;;6.75;4.40;;;;;;;11.17;48.55;98121.88;5053333;28;20029;-82
2021/05/04 07:45:28;;;;;;;7.10;3.45;;;;;;;11.25;46.56;98123.06;5054718;28;20025;-81
2021/05/04 07:47:56;;;;;;;10.73;5.50;;;;;;;11.34;47.81;98117.69;5054564;28;20465;-81
2021/05/04 07:50:22;;;;;;;9.55;5.10;;;;;;;11.51;48.32;98116.19;5054762;28;20109;-80
2021/05/04 07:52:48;;;;;;;7.40;4.45;;;;;;;11.64;48.33;98104.34;5054990;28;20408;-81
2021/05/04 07:55:13;;;;;;;5.20;3.72;;;;;;;11.75;46.78;98102.97;5034283;28;20144;-84
2021/05/04 07:57:39;;;;;;;11.45;5.05;;;;;;;11.86;46.91;98109.00;5023727;28;20609;-83
2021/05/04 08:00:05;;;;;;;5.82;3.75;;;;;;;11.98;46.70;98091.94;5025781;28;20035;-82
2021/05/04 08:02:30;;;;;;;6.10;3.40;;;;;;;12.09;44.70;98102.72;5026423;28;20022;-84
2021/05/04 08:04:56;;;;;;;6.75;4.20;;;;;;;12.14;44.44;98095.13;5029581;28;20703;-83
2021/05/04 08:07:21;;;;;;;6.93;4.85;;;;;;;12.19;45.26;98096.94;5030964;28;20135;-81
2021/05/04 08:09:47;;;;;;;5.80;3.30;;;;;;;12.27;44.05;98098.13;5033877;28;20026;-87
2021/05/04 08:12:12;;;;;;;5.47;3.88;;;;;;;12.31;43.25;98093.59;5037439;28;20087;-89
2021/05/04 08:14:37;;;;;;;5.88;3.28;;;;;;;12.36;43.86;98087.97;5038736;28;20039;-88
2021/05/04 08:17:03;;;;;;;5.40;3.75;;;;;;;12.46;43.20;98086.88;5031088;28;20074;-89
2021/05/04 08:19:29;;;;;;;6.70;4.20;;;;;;;12.59;43.66;98083.19;5030758;28;20064;-82
2021/05/04 08:21:54;;;;;;;6.65;4.18;;;;;;;12.71;43.75;98090.84;5031912;28;20037;-91
2021/05/04 08:24:20;;;;;;;7.53;4.30;;;;;;;12.84;43.53;98091.03;5047120;28;20381;-90
2021/05/04 08:26:46;;;;;;;6.70;3.55;;;;;;;12.94;43.03;98077.78;5055001;28;20029;-89
2021/05/04 08:29:12;;;;;;;5.78;4.00;;;;;;;13.05;43.22;98083.78;5053471;28;20032;-87
2021/05/04 08:31:38;;;;;;;8.85;4.32;;;;;;;13.21;43.38;98086.06;5054231;28;20021;-86
2021/05/04 08:34:04;;;;;;;10.82;5.78;;;;;;;13.31;43.19;98077.47;5052817;28;20039;-84
2021/05/04 08:36:30;;;;;;;8.25;4.30;;;;;;;13.43;42.36;98076.03;5052995;28;20056;-85
2021/05/04 08:38:59;;;;;;;11.32;5.05;;;;;;;13.44;42.51;98078.50;5053402;28;20033;-86
2021/05/04 08:41:25;;;;;;;10.20;6.00;;;;;;;13.49;42.30;98059.03;5052320;28;20025;-88
2021/05/04 08:43:51;;;;;;;10.43;4.95;;;;;;;13.63;43.05;98061.63;5052479;28;20495;-85
2021/05/04 08:46:20;;;;;;;14.93;5.65;;;;;;;13.77;42.54;98071.63;5052903;28;20481;-85
2021/05/04 08:48:45;;;;;;;13.32;6.53;;;;;;;13.85;41.91;98073.56;5053210;28;20021;-86
2021/05/04 08:51:12;;;;;;;11.60;6.20;;;;;;;13.93;41.70;98058.13;5053063;28;20668;-85
2021/05/04 08:53:38;;;;;;;7.57;5.13;;;;;;;13.97;40.81;98057.16;5053547;28;20036;-86
2021/05/04 08:56:03;;;;;;;9.32;5.15;;;;;;;13.96;41.78;98043.69;5051910;28;20385;-87
2021/05/04 08:58:31;;;;;;;8.00;5.10;;;;;;;14.09;42.35;98047.38;5052696;28;20025;-87
2021/05/04 09:00:57;;;;;;;8.77;4.28;;;;;;;14.20;42.76;98034.84;5053268;28;20552;-87
2021/05/04 09:03:36;;;;;;;8.82;4.82;;;;;;;14.23;42.25;98025.91;5053365;28;20060;-86
2021/05/04 09:06:10;;;;;;;7.78;4.95;;;;;;;14.28;42.26;98011.94;5053224;28;20481;-86
2021/05/04 09:08:42;;;;;;;9.57;4.45;;;;;;;14.33;42.17;98010.16;5053462;28;20028;-87
2021/05/04 09:16:43;;;;;;;4.32;2.58;;;;;;;14.48;39.59;97992.22;5053766;28;20393;-86
2021/05/04 09:21:39;;;;;;;6.20;3.10;;;;;;;14.61;40.58;97995.88;5053798;28;20037;-87
2021/05/04 09:24:23;;;;;;;4.13;2.78;;;;;;;14.65;38.74;97977.50;5053532;28;20505;-86
2021/05/04 09:26:56;;;;;;;5.60;3.40;;;;;;;14.76;39.38;97994.50;5052138;28;20603;-88
2021/05/04 09:29:27;;;;;;;4.30;3.30;;;;;;;14.81;38.68;97989.59;5051979;28;20029;-87
2021/05/04 09:31:52;;;;;;;6.13;3.50;;;;;;;14.91;39.57;97987.56;5052987;28;20054;-86
2021/05/04 09:34:20;;;;;;;4.40;3.30;;;;;;;14.97;38.71;97986.22;5053024;28;20020;-87
2021/05/04 09:36:50;;;;;;;4.90;3.45;;;;;;;14.97;38.78;97986.22;5053065;28;20029;-86
2021/05/04 09:39:27;;;;;;;4.85;3.65;;;;;;;15.02;38.30;97974.97;5052914;28;20025;-86
2021/05/04 09:41:54;;;;;;;3.90;2.60;;;;;;;15.15;38.63;97962.00;5052590;28;20037;-87
2021/05/04 09:44:39;;;;;;;4.20;2.95;;;;;;;15.28;38.06;97965.66;5052981;28;20021;-88
2021/05/04 09:47:06;;;;;;;3.60;3.00;;;;;;;15.28;37.84;97960.13;5051105;28;20047;-87
2021/05/04 09:49:37;;;;;;;6.00;3.03;;;;;;;15.27;37.53;97948.25;5052846;28;20025;-85
2021/05/04 09:52:33;;;;;;;5.10;3.10;;;;;;;15.28;37.72;97943.56;5052379;28;20039;-88
2021/05/04 09:55:16;;;;;;;4.78;3.00;;;;;;;15.29;37.36;97954.25;5052538;28;20074;-87
2021/05/04 09:57:44;;;;;;;4.40;2.50;;;;;;;15.31;36.94;97938.16;5052462;28;20037;-87
2021/05/04 10:00:15;;;;;;;5.80;2.67;;;;;;;15.40;37.21;97942.78;5052839;28;20111;-88
2021/05/04 10:02:42;;;;;;;4.05;2.40;;;;;;;15.40;37.28;97934.50;5052217;28;20083;-86
2021/05/04 10:05:12;;;;;;;5.28;2.80;;;;;;;15.43;37.23;97928.28;5052423;28;20409;-87
2021/05/04 10:07:38;;;;;;;3.05;2.58;;;;;;;15.43;37.68;97931.84;5052811;28;20112;-86
2021/05/04 10:10:05;;;;;;;3.40;2.42;;;;;;;15.45;36.51;97932.31;5052533;28;20078;-86
2021/05/04 10:12:30;;;;;;;3.83;2.75;;;;;;;15.44;37.65;97919.66;5052525;28;20017;-87
2021/05/04 10:15:01;;;;;;;3.95;2.85;;;;;;;15.45;36.70;97923.22;5051449;28;20021;-87
2021/05/04 10:17:30;;;;;;;3.25;2.58;;;;;;;15.48;38.10;97925.31;5052358;28;20486;-87
2021/05/04 10:19:56;;;;;;;5.72;3.45;;;;;;;15.55;37.82;97922.78;5052284;28;20057;-86
2021/05/04 10:22:22;;;;;;;3.55;2.58;;;;;;;15.61;37.37;97917.84;5052511;28;20063;-88
2021/05/04 10:24:48;;;;;;;3.92;2.90;;;;;;;15.65;36.58;97916.00;5051289;28;20080;-89
2021/05/04 10:27:19;;;;;;;3.30;2.75;;;;;;;15.61;37.69;97902.06;5052399;28;20029;-88
2021/05/04 10:29:44;;;;;;;4.40;2.97;;;;;;;15.67;37.97;97896.31;5052313;28;20522;-86
2021/05/04 10:32:13;;;;;;;3.90;3.00;;;;;;;15.81;37.53;97893.19;5052750;28;20013;-85
2021/05/04 10:34:41;;;;;;;4.85;2.85;;;;;;;15.83;37.55;97905.53;5052397;28;20424;-83
2021/05/04 10:37:12;;;;;;;3.33;2.63;;;;;;;15.84;35.78;97889.75;5050943;28;20091;-82
2021/05/04 10:39:48;;;;;;;3.63;2.83;;;;;;;15.94;36.84;97889.31;5052070;28;20488;-82
2021/05/04 10:42:33;;;;;;;4.40;2.70;;;;;;;16.03;37.03;97890.03;5051936;28;20071;-82
2021/05/04 10:44:59;;;;;;;6.25;2.60;;;;;;;16.16;37.90;97899.09;5051931;28;20029;-81
2021/05/04 10:47:42;;;;;;;3.30;2.25;;;;;;;16.28;37.04;97889.19;5052149;28;20385;-84
2021/05/04 10:50:13;;;;;;;5.13;3.60;;;;;;;16.44;37.99;97883.75;5050561;28;20036;-84
2021/05/04 10:52:56;;;;;;;4.20;3.10;;;;;;;16.52;36.27;97880.81;5044907;28;20374;-80
2021/05/04 10:55:52;;;;;;;5.82;4.10;;;;;;;16.53;37.26;97870.53;5040630;28;20096;-81
2021/05/04 10:58:22;;;;;;;7.63;4.05;;;;;;;16.65;36.09;97864.19;5045645;28;20032;-80
2021/05/04 11:00:51;;;;;;;;;;;;;;;16.70;35.98;97865.88;5055744;28;20021;-83
2021/05/04 11:03:29;;;;;;;4.18;2.53;;;;;;;16.73;35.11;97848.56;5057185;28;20380;-83
2021/05/04 11:05:54;;;;;;;3.63;2.65;;;;;;;16.69;35.58;97836.59;5048746;28;20048;-84
2021/05/04 11:08:20;;;;;;;4.78;3.35;;;;;;;16.75;36.07;97852.59;5054264;28;20037;-84
2021/05/04 11:11:20;;;;;;;4.03;2.88;;;;;;;16.77;35.67;97836.44;5058022;28;20036;-85
2021/05/04 11:13:53;;;;;;;4.47;2.97;;;;;;;16.78;34.32;97831.72;5055247;28;20063;-85
2021/05/04 11:16:41;;;;;;;4.97;2.30;;;;;;;16.88;33.70;97831.22;5054998;28;20037;-87
2021/05/04 11:19:19;;;;;;;5.80;3.35;;;;;;;16.99;32.29;97822.41;5055285;28;20373;-86
2021/05/04 11:21:51;;;;;;;7.15;3.75;;;;;;;17.06;32.79;97823.41;5054005;28;20033;-85
2021/05/04 11:24:19;;;;;;;5.60;3.03;;;;;;;17.17;33.48;97809.00;5054500;28;20507;-87
2021/05/04 11:26:56;;;;;;;5.60;3.05;;;;;;;17.33;31.90;97822.88;5055099;28;20481;-86
2021/05/04 11:29:23;;;;;;;4.43;2.63;;;;;;;17.39;30.84;97813.13;5054753;28;20024;-86
2021/05/04 11:31:53;;;;;;;8.07;3.10;;;;;;;17.49;32.18;97806.28;5055256;28;20044;-87
2021/05/04 11:34:44;;;;;;;4.80;2.47;;;;;;;17.54;31.67;97803.19;5055289;28;20048;-86
2021/05/04 11:37:50;;;;;;;3.30;2.17;;;;;;;17.56;29.94;97810.00;5055025;28;20033;-86